TimeMDT,TemperatureF,Dew PointF,Humidity,Sea Level PressureIn,VisibilityMPH,Wind Direction,Wind SpeedMPH,Gust SpeedMPH,PrecipitationIn,Events,Conditions,WindDirDegrees,DateUTC
12:53 AM,27.0,25.0,92,30.18,10.0,WNW,10.4,-,N/A,,Clear,290,2013-03-31 06:53:00
1:53 AM,23.0,21.9,96,30.18,10.0,WNW,5.8,-,N/A,,Clear,290,2013-03-31 07:53:00
2:53 AM,19.9,17.1,89,30.17,10.0,Calm,Calm,-,N/A,,Clear,0,2013-03-31 08:53:00
3:53 AM,19.0,16.0,88,30.14,10.0,WSW,6.9,-,N/A,,Clear,250,2013-03-31 09:53:00
4:53 AM,19.0,17.1,92,30.13,10.0,WSW,5.8,-,N/A,,Clear,240,2013-03-31 10:53:00
5:53 AM,19.0,15.1,85,30.12,10.0,Calm,Calm,-,N/A,,Clear,0,2013-03-31 11:53:00
6:53 AM,17.1,15.1,92,30.12,10.0,Calm,Calm,-,N/A,,Clear,0,2013-03-31 12:53:00
7:53 AM,27.0,25.0,92,30.11,10.0,Calm,Calm,-,N/A,,Clear,0,2013-03-31 13:53:00
8:53 AM,39.0,35.1,86,30.07,10.0,South,3.5,-,N/A,,Clear,190,2013-03-31 14:53:00
9:53 AM,50.0,35.1,57,30.02,10.0,SSW,10.4,-,N/A,,Clear,200,2013-03-31 15:53:00
10:53 AM,57.0,27.0,32,29.98,10.0,West,17.3,-,N/A,,Clear,270,2013-03-31 16:53:00
11:53 AM,61.0,23.0,23,29.96,10.0,WNW,17.3,25.3,N/A,,Clear,300,2013-03-31 17:53:00
12:53 PM,63.0,21.0,20,29.93,10.0,West,18.4,31.1,N/A,,Clear,280,2013-03-31 18:53:00
1:53 PM,64.9,21.9,19,29.92,10.0,WNW,19.6,27.6,N/A,,Clear,300,2013-03-31 19:53:00
2:53 PM,66.9,19.0,16,29.91,10.0,NNW,20.7,34.5,N/A,,Partly Cloudy,330,2013-03-31 20:53:00
3:53 PM,64.9,19.9,18,29.91,10.0,NW,28.8,35.7,N/A,,Mostly Cloudy,320,2013-03-31 21:53:00
4:53 PM,62.1,21.0,21,29.93,10.0,NW,25.3,35.7,N/A,,Partly Cloudy,320,2013-03-31 22:53:00
5:53 PM,59.0,25.0,27,29.97,10.0,North,19.6,28.8,N/A,,Partly Cloudy,360,2013-03-31 23:53:00
6:53 PM,50.0,26.1,39,30.04,10.0,NE,21.9,-,N/A,,Clear,50,2013-04-01 00:53:00
7:53 PM,42.1,23.0,47,30.07,10.0,NE,13.8,-,N/A,,Clear,50,2013-04-01 01:53:00
8:53 PM,37.9,19.0,47,30.10,10.0,NE,16.1,-,N/A,,Clear,50,2013-04-01 02:53:00
9:53 PM,33.1,17.1,52,30.13,10.0,ENE,10.4,-,N/A,,Clear,60,2013-04-01 03:53:00
10:53 PM,30.0,17.1,59,30.15,10.0,ENE,6.9,-,N/A,,Clear,70,2013-04-01 04:53:00
11:53 PM,26.1,17.1,69,30.17,10.0,NE,9.2,-,N/A,,Clear,40,2013-04-01 05:53:00